createdAt,value
2022-07-30T00:01:17.604Z,79.67
2022-07-30T00:03:44.471Z,79.75
2022-07-30T00:06:11.314Z,79.91
2022-07-30T00:08:38.009Z,80.13
2022-07-30T00:11:04.750Z,80.15
2022-07-30T00:13:31.549Z,80.01
2022-07-30T00:15:58.371Z,79.91
2022-07-30T00:18:25.050Z,80.02
2022-07-30T00:20:51.983Z,79.71
2022-07-30T00:23:18.670Z,80.18
2022-07-30T00:25:45.492Z,79.89
2022-07-30T00:28:12.281Z,79.77
2022-07-30T00:30:40.845Z,79.90
2022-07-30T00:33:08.293Z,79.58
2022-07-30T00:35:35.419Z,79.58
2022-07-30T00:38:02.361Z,79.65
2022-07-30T00:40:29.221Z,79.84
2022-07-30T00:42:56.161Z,79.80
2022-07-30T00:45:23.119Z,79.99
2022-07-30T00:47:49.875Z,80.02
2022-07-30T00:50:17.294Z,79.70
2022-07-30T00:52:44.488Z,79.85
2022-07-30T00:55:14.116Z,79.95
2022-07-30T00:57:41.651Z,80.73
2022-07-30T01:00:11.115Z,80.45
2022-07-30T01:02:38.234Z,80.48
2022-07-30T01:05:06.001Z,80.03
2022-07-30T01:07:32.879Z,80.13
2022-07-30T01:09:59.878Z,80.20
2022-07-30T01:12:27.488Z,80.06
2022-07-30T01:14:56.455Z,80.00
2022-07-30T01:17:23.363Z,79.58
2022-07-30T01:19:52.620Z,79.90
2022-07-30T01:22:30.678Z,79.99
2022-07-30T01:25:16.237Z,80.30
2022-07-30T01:27:53.623Z,80.14
2022-07-30T01:30:23.570Z,80.04
2022-07-30T01:32:53.553Z,80.04
2022-07-30T01:35:23.629Z,80.12
2022-07-30T01:37:52.506Z,80.21
2022-07-30T01:40:21.234Z,79.83
2022-07-30T01:42:54.856Z,79.90
2022-07-30T01:45:24.423Z,79.82
2022-07-30T01:47:58.413Z,79.61
2022-07-30T01:50:25.579Z,79.77
2022-07-30T01:52:54.328Z,79.35
2022-07-30T01:55:27.109Z,79.72
2022-07-30T01:57:55.903Z,80.32
2022-07-30T02:00:24.575Z,80.33
2022-07-30T02:02:51.477Z,80.49
2022-07-30T02:05:18.590Z,80.64
2022-07-30T02:08:07.776Z,80.86
2022-07-30T02:10:45.518Z,80.77
2022-07-30T02:13:14.308Z,80.98
2022-07-30T02:16:12.526Z,80.59
2022-07-30T02:18:48.880Z,80.68
2022-07-30T02:21:19.429Z,81.02
2022-07-30T02:23:49.080Z,81.13
2022-07-30T02:26:21.343Z,81.09
2022-07-30T02:28:51.666Z,81.11
2022-07-30T02:31:23.287Z,81.29
2022-07-30T02:33:52.863Z,81.28
2022-07-30T02:36:20.828Z,81.04
2022-07-30T02:38:53.191Z,80.76
2022-07-30T02:41:24.227Z,81.12
2022-07-30T02:43:52.888Z,80.93
2022-07-30T02:46:22.975Z,80.89
2022-07-30T02:48:51.611Z,80.96
2022-07-30T02:51:20.481Z,81.10
2022-07-30T02:53:51.835Z,80.89
2022-07-30T02:56:21.340Z,81.32
2022-07-30T02:58:50.171Z,80.82
2022-07-30T03:01:19.371Z,81.04
2022-07-30T03:03:47.531Z,81.28
2022-07-30T03:06:15.577Z,81.35
2022-07-30T03:08:44.867Z,81.24
2022-07-30T03:11:13.416Z,81.38
2022-07-30T03:13:40.489Z,81.57
2022-07-30T03:16:10.539Z,81.68
2022-07-30T03:18:40.424Z,81.65
2022-07-30T03:21:08.917Z,81.64
2022-07-30T03:23:37.835Z,81.54
2022-07-30T03:26:06.995Z,81.86
2022-07-30T03:28:37.842Z,81.96
2022-07-30T03:31:06.069Z,82.12
2022-07-30T03:33:38.646Z,82.01
2022-07-30T03:36:08.536Z,82.03
2022-07-30T03:38:41.108Z,81.77
2022-07-30T03:41:08.899Z,81.68
2022-07-30T03:43:36.831Z,81.75
2022-07-30T03:46:05.382Z,81.44
2022-07-30T03:48:34.423Z,81.54
2022-07-30T03:51:04.002Z,81.53
2022-07-30T03:53:31.971Z,81.39
2022-07-30T03:55:58.978Z,81.64
2022-07-30T03:58:25.834Z,81.71
2022-07-30T04:00:52.554Z,81.71
2022-07-30T04:03:30.286Z,81.97
2022-07-30T04:05:57.473Z,82.11
2022-07-30T04:08:24.784Z,82.63
2022-07-30T04:10:52.793Z,82.92
2022-07-30T04:13:19.579Z,82.80
2022-07-30T04:16:37.388Z,83.25
2022-07-30T04:18:51.835Z,83.36
2022-07-30T04:21:20.914Z,83.37
2022-07-30T04:24:02.352Z,83.14
2022-07-30T04:26:33.057Z,82.89
2022-07-30T04:29:00.784Z,82.97
2022-07-30T04:31:29.046Z,82.75
2022-07-30T04:33:55.820Z,82.52
2022-07-30T04:36:30.529Z,82.51
2022-07-30T04:38:58.426Z,82.00
2022-07-30T04:41:25.171Z,81.76
2022-07-30T04:43:52.890Z,81.34
2022-07-30T04:46:19.617Z,80.95
2022-07-30T04:48:48.162Z,80.88
2022-07-30T04:51:34.345Z,80.87
2022-07-30T04:54:03.180Z,80.47
2022-07-30T04:56:32.887Z,80.25
2022-07-30T04:59:00.402Z,79.93
2022-07-30T05:01:37.153Z,79.94
2022-07-30T05:04:08.494Z,79.46
2022-07-30T05:06:36.914Z,79.02
2022-07-30T05:09:04.387Z,78.84
2022-07-30T05:11:31.181Z,78.30
2022-07-30T05:13:57.964Z,77.76
2022-07-30T05:16:25.154Z,77.42
2022-07-30T05:18:51.990Z,77.79
2022-07-30T05:21:18.813Z,77.26
2022-07-30T05:23:50.014Z,77.20
2022-07-30T05:26:21.317Z,76.62
2022-07-30T05:28:53.601Z,76.68
2022-07-30T05:31:21.286Z,76.29
2022-07-30T05:33:48.139Z,76.06
2022-07-30T05:36:14.912Z,75.78
2022-07-30T05:38:41.665Z,75.81
2022-07-30T05:41:19.074Z,75.72
2022-07-30T05:43:56.159Z,75.18
2022-07-30T05:46:23.801Z,75.15
2022-07-30T05:48:50.719Z,74.47
2022-07-30T05:51:18.838Z,74.30
2022-07-30T05:53:45.727Z,73.76
2022-07-30T05:56:12.888Z,73.27
2022-07-30T05:58:39.948Z,72.69
2022-07-30T06:01:06.989Z,72.57
2022-07-30T06:03:34.999Z,72.43
2022-07-30T06:06:07.304Z,72.44
2022-07-30T06:08:36.913Z,72.22
2022-07-30T06:11:03.690Z,72.13
2022-07-30T06:13:30.612Z,71.83
2022-07-30T06:15:57.639Z,71.71
2022-07-30T06:18:32.284Z,71.50
2022-07-30T06:20:59.501Z,71.18
2022-07-30T06:23:26.199Z,70.75
2022-07-30T06:25:53.093Z,70.70
2022-07-30T06:28:38.237Z,70.13
2022-07-30T06:31:06.895Z,69.57
2022-07-30T06:33:33.868Z,69.60
2022-07-30T06:36:00.748Z,69.16
2022-07-30T06:38:28.238Z,69.15
2022-07-30T06:40:58.112Z,69.04
2022-07-30T06:43:28.133Z,68.86
2022-07-30T06:45:54.877Z,68.33
2022-07-30T06:48:21.898Z,68.40
2022-07-30T06:50:48.586Z,68.01
2022-07-30T06:53:15.307Z,67.99
2022-07-30T06:55:42.019Z,67.44
2022-07-30T06:58:08.738Z,66.88
2022-07-30T07:00:36.037Z,67.01
2022-07-30T07:03:02.865Z,67.28
2022-07-30T07:05:32.231Z,66.87
2022-07-30T07:07:59.875Z,66.62
2022-07-30T07:10:27.637Z,66.23
2022-07-30T07:12:54.807Z,66.35
2022-07-30T07:15:22.538Z,65.89
2022-07-30T07:18:05.085Z,65.55
2022-07-30T07:20:32.548Z,65.39
2022-07-30T07:22:59.530Z,65.29
2022-07-30T07:25:26.576Z,65.50
2022-07-30T07:28:12.842Z,64.92
2022-07-30T07:30:42.109Z,64.83
2022-07-30T07:33:09.655Z,64.57
2022-07-30T07:35:45.547Z,64.41
2022-07-30T07:38:18.746Z,63.96
2022-07-30T07:40:47.267Z,63.41
2022-07-30T07:43:14.897Z,63.08
2022-07-30T07:45:45.782Z,62.75
2022-07-30T07:48:13.122Z,62.85
2022-07-30T07:50:40.101Z,62.86
2022-07-30T07:53:07.391Z,62.56
2022-07-30T07:55:34.414Z,62.10
2022-07-30T07:58:01.731Z,61.76
2022-07-30T08:00:28.917Z,61.86
2022-07-30T08:02:56.358Z,61.65
2022-07-30T08:05:58.038Z,61.77
2022-07-30T08:08:13.134Z,61.47
2022-07-30T08:10:40.001Z,61.20
2022-07-30T08:13:06.982Z,60.77
2022-07-30T08:15:53.792Z,60.34
2022-07-30T08:18:20.529Z,60.92
2022-07-30T08:20:47.251Z,60.51
2022-07-30T08:23:13.943Z,60.31
2022-07-30T08:25:40.722Z,59.81
2022-07-30T08:28:07.642Z,59.51
2022-07-30T08:30:56.919Z,59.42
2022-07-30T08:33:27.545Z,59.25
2022-07-30T08:35:59.273Z,58.58
2022-07-30T08:38:31.366Z,58.87
2022-07-30T08:40:58.965Z,58.75
2022-07-30T08:43:28.886Z,58.82
2022-07-30T08:45:57.520Z,58.35
2022-07-30T08:48:25.517Z,57.80
2022-07-30T08:50:52.852Z,57.82
2022-07-30T08:53:20.848Z,58.03
2022-07-30T08:55:47.780Z,57.50
2022-07-30T08:58:30.489Z,57.99
2022-07-30T09:00:58.158Z,57.97
2022-07-30T09:03:25.105Z,57.64
2022-07-30T09:05:52.210Z,57.25
2022-07-30T09:08:19.454Z,56.31
2022-07-30T09:10:52.751Z,56.51
2022-07-30T09:13:34.551Z,56.73
2022-07-30T09:16:02.472Z,56.19
2022-07-30T09:18:41.371Z,56.03
2022-07-30T09:21:35.469Z,55.42
2022-07-30T09:24:02.817Z,55.68
2022-07-30T09:26:54.402Z,55.43
2022-07-30T09:29:29.969Z,55.25
2022-07-30T09:31:58.193Z,55.29
2022-07-30T09:34:27.043Z,54.98
2022-07-30T09:36:55.419Z,54.87
2022-07-30T09:39:33.878Z,54.54
2022-07-30T09:42:02.614Z,54.48
2022-07-30T09:44:31.105Z,54.12
2022-07-30T09:46:58.710Z,54.45
2022-07-30T09:49:28.253Z,54.79
2022-07-30T09:51:57.594Z,54.31
2022-07-30T09:54:51.163Z,54.52
2022-07-30T09:57:25.577Z,54.24
2022-07-30T09:59:56.030Z,53.90
2022-07-30T10:02:34.004Z,54.05
2022-07-30T10:05:15.432Z,52.49
2022-07-30T10:07:54.654Z,52.29
2022-07-30T10:10:26.130Z,52.04
2022-07-30T10:12:58.217Z,52.11
2022-07-30T10:15:29.760Z,51.60
2022-07-30T10:17:56.955Z,51.20
2022-07-30T10:20:24.435Z,51.47
2022-07-30T10:22:52.641Z,51.06
2022-07-30T10:25:23.247Z,49.90
2022-07-30T10:27:57.850Z,49.95
2022-07-30T10:30:27.822Z,49.95
2022-07-30T10:32:57.973Z,48.90
2022-07-30T10:35:34.165Z,49.28
2022-07-30T10:38:09.533Z,48.50
2022-07-30T10:40:50.471Z,48.22
2022-07-30T10:43:48.412Z,47.88
2022-07-30T10:46:49.024Z,47.45
2022-07-30T10:49:18.734Z,46.66
2022-07-30T10:51:57.418Z,46.43
2022-07-30T10:54:33.663Z,46.83
2022-07-30T10:57:08.571Z,46.06
2022-07-30T10:59:50.621Z,46.23
2022-07-30T11:02:19.703Z,46.07
2022-07-30T11:04:46.819Z,44.41
2022-07-30T11:07:22.404Z,44.80
2022-07-30T11:10:05.575Z,44.80
2022-07-30T11:12:44.190Z,45.57
2022-07-30T11:15:18.802Z,44.74
2022-07-30T11:18:12.510Z,43.78
2022-07-30T11:20:39.980Z,42.09
2022-07-30T11:23:29.807Z,41.34
2022-07-30T11:26:02.136Z,43.20
2022-07-30T11:28:42.863Z,42.27
2022-07-30T11:31:36.828Z,43.18
2022-07-30T11:34:20.776Z,42.61
2022-07-30T11:37:18.722Z,39.53
2022-07-30T11:39:55.430Z,40.05
2022-07-30T11:42:28.113Z,41.70
2022-07-30T11:45:14.680Z,43.73
2022-07-30T11:47:48.827Z,39.63
2022-07-30T11:50:19.009Z,40.46
2022-07-30T11:52:49.427Z,40.71
2022-07-30T11:55:26.935Z,40.20
2022-07-30T11:57:54.061Z,42.36
2022-07-30T12:00:21.213Z,37.89
2022-07-30T12:05:25.207Z,34.86
2022-07-30T12:07:52.040Z,37.59
2022-07-30T12:10:25.693Z,37.49
2022-07-30T12:13:07.899Z,38.19
2022-07-30T12:15:35.681Z,36.38
2022-07-30T12:18:26.257Z,36.34
2022-07-30T12:21:02.570Z,35.84
2022-07-30T12:23:29.790Z,37.13
2022-07-30T12:25:57.247Z,36.78
2022-07-30T12:28:26.201Z,39.62
2022-07-30T12:30:53.511Z,39.03
2022-07-30T12:33:20.821Z,37.18
2022-07-30T12:35:48.923Z,34.71
2022-07-30T12:38:16.749Z,34.94
2022-07-30T12:40:52.739Z,35.93
2022-07-30T12:43:39.763Z,36.88
2022-07-30T12:46:06.250Z,35.79
2022-07-30T12:48:32.948Z,36.95
2022-07-30T12:51:07.975Z,35.33
2022-07-30T12:53:34.955Z,34.41
2022-07-30T12:56:12.308Z,34.41
2022-07-30T12:58:43.865Z,36.27
2022-07-30T13:01:13.232Z,36.27
2022-07-30T13:03:40.467Z,37.18
2022-07-30T13:06:22.193Z,35.43
2022-07-30T13:08:59.186Z,36.78
2022-07-30T13:11:25.851Z,37.36
2022-07-30T13:13:53.118Z,38.36
2022-07-30T13:16:20.262Z,37.43
2022-07-30T13:18:47.486Z,38.35
2022-07-30T13:21:14.075Z,37.00
2022-07-30T13:23:41.556Z,35.04
2022-07-30T13:26:08.556Z,36.18
2022-07-30T13:28:35.470Z,33.94
2022-07-30T13:31:02.116Z,33.18
2022-07-30T13:33:28.727Z,33.93
2022-07-30T13:35:55.675Z,30.49
2022-07-30T13:38:22.318Z,33.50
2022-07-30T13:40:48.878Z,32.67
2022-07-30T13:43:15.540Z,32.68
2022-07-30T13:45:42.314Z,32.98
2022-07-30T13:48:09.070Z,32.68
2022-07-30T13:50:35.752Z,30.81
2022-07-30T13:53:02.797Z,30.76
2022-07-30T13:55:30.319Z,31.54
2022-07-30T13:57:56.964Z,35.51
2022-07-30T14:00:23.598Z,33.16
2022-07-30T14:02:50.861Z,32.00
2022-07-30T14:05:17.542Z,30.64
2022-07-30T14:07:44.180Z,32.26
2022-07-30T14:10:10.847Z,31.70
2022-07-30T14:12:38.044Z,31.70
2022-07-30T14:15:05.062Z,31.95
2022-07-30T14:17:31.829Z,32.02
2022-07-30T14:19:58.647Z,31.14
2022-07-30T14:22:25.249Z,29.79
2022-07-30T14:24:51.826Z,30.13
2022-07-30T14:27:20.544Z,30.63
2022-07-30T14:29:47.620Z,27.65
2022-07-30T14:32:14.231Z,31.64
2022-07-30T14:34:41.322Z,27.55
2022-07-30T14:37:15.937Z,32.15
2022-07-30T14:39:42.540Z,31.22
2022-07-30T14:42:09.150Z,31.21
2022-07-30T14:44:36.073Z,32.47
2022-07-30T14:47:03.281Z,33.77
2022-07-30T14:49:30.701Z,38.00
2022-07-30T14:51:57.282Z,37.13
2022-07-30T14:54:24.009Z,34.81
2022-07-30T14:56:59.580Z,33.50
2022-07-30T14:59:30.359Z,32.91
2022-07-30T15:01:57.211Z,33.59
2022-07-30T15:04:24.186Z,33.63
2022-07-30T15:06:50.909Z,34.13
2022-07-30T15:09:18.244Z,34.26
2022-07-30T15:12:08.026Z,34.38
2022-07-30T15:14:31.677Z,35.68
2022-07-30T15:17:03.693Z,38.06
2022-07-30T15:19:30.838Z,40.43
2022-07-30T15:21:58.390Z,42.47
2022-07-30T15:24:26.266Z,44.67
2022-07-30T15:26:55.907Z,45.93
2022-07-30T15:29:24.273Z,46.49
2022-07-30T15:31:51.914Z,47.06
2022-07-30T15:34:18.672Z,47.22
2022-07-30T15:36:45.773Z,47.87
2022-07-30T15:39:13.537Z,48.28
2022-07-30T15:41:42.393Z,49.06
2022-07-30T15:44:09.208Z,49.18
2022-07-30T15:46:35.865Z,49.97
2022-07-30T15:49:02.856Z,51.05
2022-07-30T15:51:31.532Z,52.34
2022-07-30T15:53:58.779Z,52.37
2022-07-30T15:56:26.642Z,52.14
2022-07-30T15:58:53.337Z,51.82
2022-07-30T16:01:20.186Z,51.05
2022-07-30T16:03:46.891Z,50.92
2022-07-30T16:06:14.699Z,49.94
2022-07-30T16:08:41.432Z,50.04
2022-07-30T16:11:08.187Z,50.37
2022-07-30T16:13:37.862Z,50.04
2022-07-30T16:16:04.940Z,51.07
2022-07-30T16:18:31.678Z,51.97
2022-07-30T16:21:01.161Z,52.26
2022-07-30T16:23:28.539Z,52.43
2022-07-30T16:26:04.338Z,52.43
2022-07-30T16:28:31.706Z,52.17
2022-07-30T16:30:58.631Z,51.90
2022-07-30T16:33:25.389Z,51.89
2022-07-30T16:35:52.291Z,51.73
2022-07-30T16:38:20.236Z,52.86
2022-07-30T16:40:47.154Z,53.37
2022-07-30T16:43:15.560Z,54.21
2022-07-30T16:45:43.851Z,55.14
2022-07-30T16:48:12.025Z,55.38
2022-07-30T16:50:40.703Z,56.14
2022-07-30T16:53:13.477Z,56.89
2022-07-30T16:55:42.074Z,56.80
2022-07-30T16:58:09.269Z,55.91
2022-07-30T17:00:36.301Z,55.31
2022-07-30T17:03:03.489Z,55.26
2022-07-30T17:05:30.209Z,56.11
2022-07-30T17:07:57.200Z,56.82
2022-07-30T17:10:26.341Z,57.29
2022-07-30T17:12:57.059Z,57.70
2022-07-30T17:15:32.153Z,57.39
2022-07-30T17:18:00.345Z,57.28
2022-07-30T17:20:27.332Z,58.40
2022-07-30T17:22:58.135Z,59.50
2022-07-30T17:25:28.395Z,60.21
2022-07-30T17:27:56.271Z,60.01
2022-07-30T17:30:23.536Z,60.33
2022-07-30T17:32:51.078Z,60.39
2022-07-30T17:35:17.998Z,60.91
2022-07-30T17:37:44.896Z,61.54
2022-07-30T17:40:28.416Z,61.73
2022-07-30T17:43:03.716Z,62.00
2022-07-30T17:45:31.428Z,62.60
2022-07-30T17:47:58.311Z,62.94
2022-07-30T17:50:25.237Z,63.25
2022-07-30T17:52:52.094Z,63.59
2022-07-30T17:55:19.260Z,63.82
2022-07-30T17:57:45.924Z,64.10
2022-07-30T18:00:13.173Z,65.33
2022-07-30T18:02:39.870Z,66.41
2022-07-30T18:05:07.091Z,67.31
2022-07-30T18:07:33.744Z,68.31
2022-07-30T18:10:00.537Z,70.17
2022-07-30T18:12:27.968Z,71.65
2022-07-30T18:14:55.055Z,72.66
2022-07-30T18:17:21.769Z,72.89
2022-07-30T18:19:48.546Z,73.30
2022-07-30T18:22:15.980Z,73.58
2022-07-30T18:24:57.394Z,73.70
2022-07-30T18:27:24.134Z,74.17
2022-07-30T18:29:50.964Z,74.87
2022-07-30T18:32:17.618Z,75.68
2022-07-30T18:34:44.432Z,76.24
2022-07-30T18:37:11.128Z,75.76
2022-07-30T18:39:37.984Z,76.04
2022-07-30T18:42:05.428Z,76.16
2022-07-30T18:44:32.625Z,76.60
2022-07-30T18:46:59.340Z,76.21
2022-07-30T18:49:36.562Z,75.67
2022-07-30T18:52:04.921Z,75.63
2022-07-30T18:54:31.991Z,75.76
2022-07-30T18:56:59.037Z,75.57
2022-07-30T18:59:25.754Z,75.46
2022-07-30T19:01:52.519Z,75.21
2022-07-30T19:04:19.298Z,74.95
2022-07-30T19:06:45.952Z,75.19
2022-07-30T19:09:17.216Z,75.75
2022-07-30T19:11:46.388Z,76.68
2022-07-30T19:14:14.450Z,76.88
2022-07-30T19:16:44.011Z,76.17
2022-07-30T19:19:13.536Z,76.02
2022-07-30T19:21:41.298Z,75.76
2022-07-30T19:24:10.092Z,76.11
2022-07-30T19:26:39.699Z,76.01
2022-07-30T19:29:08.210Z,76.21
2022-07-30T19:31:35.588Z,76.20
2022-07-30T19:34:02.977Z,75.96
2022-07-30T19:36:30.456Z,76.90
2022-07-30T19:38:59.332Z,77.32
2022-07-30T19:41:40.823Z,77.17
2022-07-30T19:44:09.203Z,77.74
2022-07-30T19:46:36.527Z,77.60
2022-07-30T19:49:03.545Z,77.21
2022-07-30T19:52:10.119Z,77.42
2022-07-30T19:54:20.984Z,77.37
2022-07-30T19:56:48.636Z,77.37
2022-07-30T19:59:16.110Z,77.73
2022-07-30T20:01:43.973Z,77.69
2022-07-30T20:04:11.834Z,77.67
2022-07-30T20:06:46.140Z,77.41
2022-07-30T20:09:15.039Z,77.72
2022-07-30T20:11:43.789Z,77.99
2022-07-30T20:14:10.773Z,78.22
2022-07-30T20:16:38.074Z,78.80
2022-07-30T20:19:05.044Z,79.02
2022-07-30T20:22:06.846Z,79.22
2022-07-30T20:24:20.969Z,79.19
2022-07-30T20:26:51.080Z,79.28
2022-07-30T20:29:19.354Z,79.36
2022-07-30T20:31:49.945Z,79.11
2022-07-30T20:34:23.336Z,78.98
2022-07-30T20:36:50.903Z,78.80
2022-07-30T20:39:18.632Z,78.93
2022-07-30T20:41:47.841Z,79.07
2022-07-30T20:44:23.308Z,79.11
2022-07-30T20:46:50.612Z,79.38
2022-07-30T20:49:23.605Z,80.28
2022-07-30T20:51:52.046Z,80.46
2022-07-30T20:54:21.209Z,80.46
2022-07-30T20:56:48.064Z,80.60
2022-07-30T20:59:15.635Z,81.19
2022-07-30T21:01:42.478Z,81.36
2022-07-30T21:04:09.947Z,81.16
2022-07-30T21:06:50.835Z,81.02
2022-07-30T21:09:17.548Z,81.55
2022-07-30T21:11:47.751Z,81.58
2022-07-30T21:14:18.314Z,81.47
2022-07-30T21:16:46.861Z,81.29
2022-07-30T21:19:16.571Z,81.43
2022-07-30T21:21:48.212Z,81.61
2022-07-30T21:24:19.570Z,81.65
2022-07-30T21:26:51.354Z,81.42
2022-07-30T21:29:19.084Z,81.07
2022-07-30T21:32:01.446Z,81.04
2022-07-30T21:34:35.967Z,81.18
2022-07-30T21:37:07.486Z,81.00
2022-07-30T21:39:39.656Z,80.88
2022-07-30T21:42:10.171Z,80.96
2022-07-30T21:44:38.282Z,80.73
2022-07-30T21:47:10.241Z,81.16
2022-07-30T21:49:38.040Z,80.91
2022-07-30T21:52:05.488Z,81.02
2022-07-30T21:54:45.138Z,81.66
2022-07-30T21:57:12.633Z,81.79
2022-07-30T21:59:40.550Z,82.43
2022-07-30T22:02:15.660Z,82.15
2022-07-30T22:04:45.544Z,81.67
2022-07-30T22:07:14.483Z,81.10
2022-07-30T22:09:41.216Z,80.67
2022-07-30T22:12:09.771Z,80.75
2022-07-30T22:14:39.261Z,80.77
2022-07-30T22:17:06.034Z,81.41
2022-07-30T22:19:49.715Z,81.51
2022-07-30T22:22:26.574Z,81.47
2022-07-30T22:24:55.841Z,81.99
2022-07-30T22:27:25.387Z,82.49
2022-07-30T22:29:55.554Z,82.69
2022-07-30T22:32:23.578Z,82.73
2022-07-30T22:34:51.207Z,82.82
2022-07-30T22:37:21.200Z,83.00
2022-07-30T22:39:52.210Z,83.25
2022-07-30T22:42:23.979Z,83.34
2022-07-30T22:44:52.134Z,83.58
2022-07-30T22:47:21.684Z,83.64
2022-07-30T22:50:06.737Z,83.35
2022-07-30T22:52:39.697Z,83.64
2022-07-30T22:55:11.686Z,83.98
2022-07-30T22:57:40.313Z,84.02
2022-07-30T23:00:11.110Z,84.23
2022-07-30T23:02:40.166Z,84.46
2022-07-30T23:05:08.257Z,84.34
2022-07-30T23:07:39.613Z,84.70
2022-07-30T23:10:17.081Z,84.52
2022-07-30T23:12:47.408Z,84.38
2022-07-30T23:15:14.859Z,84.63
2022-07-30T23:17:41.880Z,84.49
2022-07-30T23:20:12.474Z,84.68
2022-07-30T23:22:39.316Z,84.53
2022-07-30T23:25:07.049Z,84.49
2022-07-30T23:27:34.557Z,84.68
2022-07-30T23:30:01.291Z,84.79
2022-07-30T23:32:28.250Z,85.00
2022-07-30T23:34:54.926Z,85.40
2022-07-30T23:37:22.010Z,85.59
2022-07-30T23:39:48.776Z,85.73
2022-07-30T23:42:15.523Z,85.47
2022-07-30T23:44:42.367Z,85.75
2022-07-30T23:47:09.082Z,86.07
2022-07-30T23:49:35.923Z,86.23
2022-07-30T23:52:03.251Z,86.60
2022-07-30T23:54:30.057Z,87.09
2022-07-30T23:56:57.456Z,87.56
2022-07-30T23:59:36.931Z,87.73
